Time;durP1;ratioP1;P1;durP2;ratioP2;P2;SDS_P1;SDS_P2;PMS_P1;PMS_P2;Temp;Humidity;BMP_temperature;BMP_pressure;BME280_temperature;BME280_humidity;BME280_pressure;Samples;Min_cycle;Max_cycle;Signal;HPM_P1;HPM_P2
2021/01/01 00:00:30;;;;;;;10.57;9.47;;;3.00;99.90;;;;;;4930963;29;20426;-70
2021/01/01 00:02:59;;;;;;;10.67;9.53;;;3.00;99.90;;;;;;4932851;29;20812;-69
2021/01/01 00:05:25;;;;;;;13.13;8.87;;;3.00;99.90;;;;;;4932833;29;20453;-70
2021/01/01 00:07:51;;;;;;;14.00;10.97;;;3.10;99.90;;;;;;4932092;29;20429;-70
2021/01/01 00:10:16;;;;;;;14.70;13.20;;;3.10;99.90;;;;;;4932424;29;20204;-70
2021/01/01 00:12:42;;;;;;;13.10;10.33;;;3.10;99.90;;;;;;4933038;29;20445;-70
2021/01/01 00:15:08;;;;;;;13.30;10.83;;;3.10;99.90;;;;;;4934886;29;20205;-69
2021/01/01 00:17:34;;;;;;;13.33;11.33;;;3.20;99.90;;;;;;4935868;29;20682;-69
2021/01/01 00:19:59;;;;;;;11.40;10.20;;;3.20;99.90;;;;;;4935629;29;20441;-71
2021/01/01 00:22:25;;;;;;;13.77;10.60;;;3.20;99.90;;;;;;4936116;29;20561;-70
2021/01/01 00:24:50;;;;;;;13.10;10.60;;;3.20;99.90;;;;;;4935841;29;20706;-70
2021/01/01 00:27:16;;;;;;;10.70;9.60;;;3.20;99.90;;;;;;4936114;29;20181;-71
2021/01/01 00:29:42;;;;;;;11.50;10.37;;;3.20;99.90;;;;;;4934859;29;20213;-70
2021/01/01 00:32:08;;;;;;;11.67;9.93;;;3.30;99.90;;;;;;4936150;29;20429;-70
2021/01/01 00:34:34;;;;;;;18.20;12.77;;;3.20;99.90;;;;;;4935485;29;20201;-71
2021/01/01 00:37:00;;;;;;;18.40;12.47;;;3.20;99.90;;;;;;4936065;29;20417;-70
2021/01/01 00:39:25;;;;;;;14.33;12.00;;;3.10;99.90;;;;;;4934528;29;20189;-70
2021/01/01 00:41:51;;;;;;;17.03;11.57;;;3.10;99.90;;;;;;4935954;29;20418;-70
2021/01/01 00:44:17;;;;;;;12.27;10.43;;;3.10;99.90;;;;;;4935393;29;20186;-70
2021/01/01 00:46:43;;;;;;;14.17;11.77;;;3.10;99.90;;;;;;4935900;29;20194;-70
2021/01/01 00:49:08;;;;;;;12.53;10.20;;;3.00;99.90;;;;;;4934543;29;20457;-70
2021/01/01 00:51:34;;;;;;;14.27;10.90;;;3.00;99.90;;;;;;4935760;29;20439;-70
2021/01/01 00:54:01;;;;;;;21.80;14.83;;;3.00;99.90;;;;;;4935280;29;20276;-70
2021/01/01 00:56:27;;;;;;;13.53;11.13;;;3.00;99.90;;;;;;4935625;29;20184;-70
2021/01/01 00:58:54;;;;;;;11.67;10.23;;;3.00;99.90;;;;;;4934337;29;20453;-71
2021/01/01 01:01:24;;;;;;;13.33;10.40;;;2.90;99.90;;;;;;4933722;29;20516;-70
2021/01/01 01:03:54;;;;;;;15.13;12.20;;;2.90;99.90;;;;;;4935250;29;20434;-70
2021/01/01 01:06:20;;;;;;;15.47;11.87;;;2.90;99.90;;;;;;4935429;29;20433;-70
2021/01/01 01:08:46;;;;;;;14.60;11.77;;;3.00;99.90;;;;;;4934285;29;20492;-70
2021/01/01 01:11:12;;;;;;;15.93;12.60;;;3.00;99.90;;;;;;4935152;29;20918;-70
2021/01/01 01:13:37;;;;;;;15.70;12.23;;;3.00;99.90;;;;;;4935103;29;20206;-70
2021/01/01 01:16:04;;;;;;;13.30;12.00;;;3.10;99.90;;;;;;4935089;29;20188;-70
2021/01/01 01:18:30;;;;;;;13.20;11.47;;;3.10;99.90;;;;;;4933999;29;20555;-70
2021/01/01 01:20:55;;;;;;;19.00;12.57;;;3.10;99.90;;;;;;4934980;29;20516;-70
2021/01/01 01:23:21;;;;;;;13.33;11.50;;;3.10;99.90;;;;;;4935167;29;20520;-70
2021/01/01 01:25:46;;;;;;;15.07;10.60;;;3.00;99.90;;;;;;4933994;29;20264;-69
2021/01/01 01:28:12;;;;;;;12.30;9.97;;;3.10;99.90;;;;;;4934191;29;20588;-70
2021/01/01 01:30:38;;;;;;;14.23;10.33;;;3.10;99.90;;;;;;4935191;29;20185;-70
2021/01/01 01:33:03;;;;;;;12.90;11.10;;;3.10;99.90;;;;;;4934930;29;20246;-70
2021/01/01 01:35:29;;;;;;;14.60;11.60;;;3.10;99.90;;;;;;4934797;29;20605;-70
2021/01/01 01:37:55;;;;;;;11.67;10.30;;;3.20;99.90;;;;;;4934018;29;20178;-70
2021/01/01 01:40:20;;;;;;;13.60;10.67;;;3.30;99.90;;;;;;4935005;29;20612;-70
2021/01/01 01:42:46;;;;;;;11.27;9.37;;;3.30;99.90;;;;;;4934856;29;20174;-70
2021/01/01 01:45:13;;;;;;;14.97;11.37;;;3.30;99.90;;;;;;4934810;29;20192;-71
2021/01/01 01:47:39;;;;;;;12.20;10.70;;;3.30;99.90;;;;;;4932894;29;20488;-71
2021/01/01 01:50:05;;;;;;;13.83;11.83;;;3.40;99.90;;;;;;4934466;29;20441;-70
2021/01/01 01:52:33;;;;;;;13.50;10.97;;;3.40;99.90;;;;;;4934685;29;20456;-69
2021/01/01 01:55:00;;;;;;;14.20;11.77;;;3.40;99.90;;;;;;4934480;29;20483;-70
2021/01/01 01:57:26;;;;;;;12.57;10.83;;;3.50;99.90;;;;;;4934374;29;20488;-71
2021/01/01 01:59:55;;;;;;;16.40;12.00;;;3.50;99.90;;;;;;4932122;29;20445;-70
2021/01/01 02:02:21;;;;;;;14.00;11.43;;;3.50;99.90;;;;;;4934596;29;20547;-70
2021/01/01 02:04:47;;;;;;;13.50;11.87;;;3.50;99.90;;;;;;4934452;29;20461;-71
2021/01/01 02:07:13;;;;;;;14.87;12.00;;;3.50;99.90;;;;;;4934357;29;21019;-70
2021/01/01 02:09:39;;;;;;;14.23;12.03;;;3.60;99.90;;;;;;4933549;29;20528;-70
2021/01/01 02:12:07;;;;;;;12.73;11.20;;;3.60;99.90;;;;;;4934280;29;20237;-70
2021/01/01 02:14:33;;;;;;;12.30;11.00;;;3.60;99.90;;;;;;4934204;29;20520;-70
2021/01/01 02:16:58;;;;;;;16.10;12.10;;;3.60;99.90;;;;;;4934241;29;20426;-70
2021/01/01 02:19:24;;;;;;;16.13;11.00;;;3.60;99.90;;;;;;4933301;29;20887;-70
2021/01/01 02:21:49;;;;;;;13.23;10.97;;;3.50;99.90;;;;;;4934222;29;20173;-70
2021/01/01 02:24:15;;;;;;;14.23;12.20;;;3.50;99.90;;;;;;4934617;29;20182;-70
2021/01/01 02:26:40;;;;;;;15.93;11.90;;;3.40;99.90;;;;;;4934650;29;20550;-70
2021/01/01 02:29:06;;;;;;;14.10;11.57;;;3.40;99.90;;;;;;4933331;29;20272;-70
2021/01/01 02:31:31;;;;;;;15.17;12.47;;;3.40;99.90;;;;;;4932842;29;20197;-70
2021/01/01 02:33:57;;;;;;;15.40;12.70;;;3.50;99.90;;;;;;4934097;29;20205;-70
2021/01/01 02:36:23;;;;;;;14.73;12.60;;;3.60;99.90;;;;;;4933801;29;20708;-70
2021/01/01 02:38:48;;;;;;;16.27;12.77;;;3.60;99.90;;;;;;4933100;29;20194;-70
2021/01/01 02:41:14;;;;;;;13.50;12.10;;;3.70;99.90;;;;;;4932552;29;20182;-70
2021/01/01 02:43:40;;;;;;;16.30;11.87;;;3.70;99.90;;;;;;4933786;29;20188;-70
2021/01/01 02:46:05;;;;;;;14.90;11.87;;;3.70;99.90;;;;;;4933700;29;20183;-70
2021/01/01 02:48:31;;;;;;;15.50;12.17;;;3.60;99.90;;;;;;4932958;29;20207;-70
2021/01/01 02:50:56;;;;;;;15.70;12.90;;;3.60;99.90;;;;;;4933858;29;20527;-70
2021/01/01 02:53:22;;;;;;;15.00;13.27;;;3.70;99.90;;;;;;4933598;29;20213;-71
2021/01/01 02:55:48;;;;;;;15.87;12.90;;;3.70;99.90;;;;;;4933619;29;20174;-70
2021/01/01 02:58:14;;;;;;;17.10;14.23;;;3.60;99.90;;;;;;4932835;29;20193;-70
2021/01/01 03:00:42;;;;;;;15.67;13.50;;;3.60;99.90;;;;;;4931715;29;20433;-70
2021/01/01 03:03:07;;;;;;;18.73;15.17;;;3.70;99.90;;;;;;4933527;29;20436;-70
2021/01/01 03:05:34;;;;;;;14.90;13.00;;;3.60;99.90;;;;;;4933327;29;20418;-71
2021/01/01 03:07:59;;;;;;;17.17;13.70;;;3.60;99.90;;;;;;4932697;29;20240;-69
2021/01/01 03:10:25;;;;;;;15.40;13.90;;;3.60;99.90;;;;;;4933390;29;20520;-70
2021/01/01 03:12:51;;;;;;;17.00;13.90;;;3.60;99.90;;;;;;4933480;29;20182;-70
2021/01/01 03:15:17;;;;;;;17.77;14.33;;;3.60;99.90;;;;;;4932056;29;20477;-70
2021/01/01 03:17:43;;;;;;;18.60;14.67;;;3.60;99.90;;;;;;4932504;29;20188;-70
2021/01/01 03:20:09;;;;;;;18.83;15.03;;;3.60;99.90;;;;;;4933297;29;20443;-70
2021/01/01 03:22:36;;;;;;;18.13;14.13;;;3.60;99.90;;;;;;4933333;29;20437;-70
2021/01/01 03:25:03;;;;;;;14.60;13.00;;;3.60;99.90;;;;;;4933293;29;20920;-70
2021/01/01 03:27:29;;;;;;;16.80;12.80;;;3.60;99.90;;;;;;4933191;29;20444;-70
2021/01/01 03:29:54;;;;;;;15.60;13.30;;;3.60;99.90;;;;;;4932324;29;20472;-70
2021/01/01 03:32:20;;;;;;;14.77;13.17;;;3.70;99.90;;;;;;4933242;29;20185;-70
2021/01/01 03:34:45;;;;;;;20.60;14.07;;;3.60;99.90;;;;;;4933192;29;20214;-70
2021/01/01 03:37:11;;;;;;;18.13;13.10;;;3.60;99.90;;;;;;4933140;29;20628;-70
2021/01/01 03:39:37;;;;;;;16.57;13.60;;;3.60;99.90;;;;;;4932332;29;20291;-70
2021/01/01 03:42:02;;;;;;;19.07;14.87;;;3.60;99.90;;;;;;4933396;29;20542;-70
2021/01/01 03:44:28;;;;;;;19.43;16.00;;;3.60;99.90;;;;;;4933126;29;20166;-70
2021/01/01 03:46:53;;;;;;;17.83;14.13;;;3.70;99.90;;;;;;4933132;29;20182;-69
2021/01/01 03:49:19;;;;;;;17.50;14.90;;;3.60;99.90;;;;;;4935319;29;20193;-69
2021/01/01 03:51:45;;;;;;;16.73;13.23;;;3.70;99.90;;;;;;4936860;29;20174;-70
2021/01/01 03:54:11;;;;;;;18.67;14.43;;;3.70;99.90;;;;;;4936964;29;20468;-70
2021/01/01 03:56:36;;;;;;;21.50;14.60;;;3.60;99.90;;;;;;4935564;29;20200;-70
2021/01/01 03:59:02;;;;;;;20.10;14.00;;;3.60;99.90;;;;;;4935979;29;20790;-70
2021/01/01 04:01:28;;;;;;;14.90;12.80;;;3.50;99.90;;;;;;4936663;29;20182;-70
2021/01/01 04:03:53;;;;;;;16.43;12.57;;;3.50;99.90;;;;;;4936681;29;20431;-71
2021/01/01 04:06:19;;;;;;;21.00;15.43;;;3.40;99.90;;;;;;4936654;29;20245;-70
2021/01/01 04:08:45;;;;;;;16.60;14.67;;;3.30;99.90;;;;;;4935844;29;20205;-70
2021/01/01 04:11:10;;;;;;;19.87;15.03;;;3.30;99.90;;;;;;4935357;29;20181;-70
2021/01/01 04:13:36;;;;;;;16.53;14.10;;;3.30;99.90;;;;;;4936460;29;20581;-70
2021/01/01 04:16:02;;;;;;;18.03;13.97;;;3.30;99.90;;;;;;4936463;29;20182;-70
2021/01/01 04:18:27;;;;;;;17.80;14.57;;;3.30;99.90;;;;;;4935697;29;20608;-70
2021/01/01 04:20:53;;;;;;;19.50;14.77;;;3.20;99.90;;;;;;4936610;29;20421;-71
2021/01/01 04:23:18;;;;;;;17.93;14.77;;;3.10;99.90;;;;;;4936498;29;20197;-70
2021/01/01 04:25:47;;;;;;;21.53;15.73;;;3.10;99.90;;;;;;4936386;29;20177;-69
2021/01/01 04:28:12;;;;;;;20.03;15.47;;;3.10;99.90;;;;;;4935530;29;20202;-70
2021/01/01 04:30:38;;;;;;;18.23;14.17;;;3.10;99.90;;;;;;4936414;29;20946;-70
2021/01/01 04:33:03;;;;;;;19.60;13.97;;;3.10;99.90;;;;;;4936288;29;20173;-70
2021/01/01 04:35:29;;;;;;;19.20;14.37;;;3.10;99.90;;;;;;4936183;29;20181;-71
2021/01/01 04:37:54;;;;;;;18.50;14.43;;;3.10;99.90;;;;;;4935508;29;20644;-70
2021/01/01 04:40:20;;;;;;;19.70;14.10;;;3.10;99.90;;;;;;4936453;29;20642;-69
2021/01/01 04:42:46;;;;;;;19.87;14.53;;;3.20;99.90;;;;;;4936458;29;20172;-71
2021/01/01 04:45:12;;;;;;;20.00;14.73;;;3.20;99.90;;;;;;4936262;29;20632;-70
2021/01/01 04:47:39;;;;;;;20.07;16.50;;;3.30;99.90;;;;;;4935622;29;20514;-70
2021/01/01 04:50:05;;;;;;;21.93;14.80;;;3.20;99.90;;;;;;4935803;29;20449;-70
2021/01/01 04:52:32;;;;;;;19.63;14.53;;;3.20;99.90;;;;;;4935857;29;20484;-70
2021/01/01 04:55:01;;;;;;;18.30;15.23;;;3.30;99.90;;;;;;4935719;29;20908;-71
2021/01/01 04:57:28;;;;;;;19.37;13.97;;;3.40;99.90;;;;;;4935547;29;20421;-70
2021/01/01 04:59:54;;;;;;;18.97;14.83;;;3.40;99.90;;;;;;4934494;29;20441;-70
2021/01/01 05:02:19;;;;;;;18.87;14.20;;;3.50;99.90;;;;;;4935616;29;20443;-70
2021/01/01 05:04:48;;;;;;;21.40;15.00;;;3.50;99.90;;;;;;4935493;29;20992;-70
2021/01/01 05:07:18;;;;;;;17.37;14.20;;;3.50;99.90;;;;;;4935560;29;20598;-71
2021/01/01 05:09:44;;;;;;;16.67;14.27;;;3.50;99.90;;;;;;4934265;29;20453;-69
2021/01/01 05:12:11;;;;;;;17.90;14.07;;;3.60;99.90;;;;;;4935532;29;20468;-70
2021/01/01 05:14:38;;;;;;;15.00;13.17;;;3.50;99.90;;;;;;4935292;29;20460;-70
2021/01/01 05:17:04;;;;;;;17.90;13.40;;;3.50;99.90;;;;;;4935296;29;20582;-70
2021/01/01 05:19:41;;;;;;;18.30;15.27;;;3.50;99.90;;;;;;4933216;29;20578;-70
2021/01/01 05:22:08;;;;;;;17.20;12.43;;;3.60;99.90;;;;;;4935290;29;20488;-70
2021/01/01 05:24:43;;;;;;;17.03;14.27;;;3.50;99.90;;;;;;4935367;29;20513;-70
2021/01/01 05:27:16;;;;;;;18.20;15.13;;;3.40;99.90;;;;;;4935237;29;20907;-70
2021/01/01 05:29:50;;;;;;;17.70;13.57;;;3.50;99.90;;;;;;4935728;29;20559;-70
2021/01/01 05:32:20;;;;;;;20.93;15.27;;;3.60;99.90;;;;;;4935097;29;20437;-72
2021/01/01 05:34:46;;;;;;;17.17;14.43;;;3.60;99.90;;;;;;4936113;29;20516;-70
2021/01/01 05:37:24;;;;;;;20.50;14.57;;;3.60;99.90;;;;;;4936075;29;20426;-71
2021/01/01 05:39:59;;;;;;;18.90;13.43;;;3.60;99.90;;;;;;4935734;29;20216;-72
2021/01/01 05:42:24;;;;;;;18.13;13.70;;;3.50;99.90;;;;;;4936599;29;20417;-71
2021/01/01 05:44:50;;;;;;;16.43;13.73;;;3.50;99.90;;;;;;4936297;29;20430;-72
2021/01/01 05:47:15;;;;;;;17.13;13.43;;;3.60;99.90;;;;;;4936064;29;20546;-70
2021/01/01 05:49:42;;;;;;;18.10;14.83;;;3.60;99.90;;;;;;4935087;29;20201;-71
2021/01/01 05:52:10;;;;;;;14.90;12.70;;;3.60;99.90;;;;;;4936038;29;20257;-71
2021/01/01 05:54:38;;;;;;;25.67;16.73;;;3.70;99.90;;;;;;4935859;29;20497;-71
2021/01/01 05:57:05;;;;;;;19.50;14.37;;;3.70;99.90;;;;;;4935714;29;21002;-70
2021/01/01 05:59:35;;;;;;;17.63;13.83;;;3.60;99.90;;;;;;4932248;29;20441;-71
2021/01/01 06:02:02;;;;;;;22.97;15.47;;;3.60;99.90;;;;;;4935724;29;20449;-71
2021/01/01 06:04:28;;;;;;;19.33;14.87;;;3.50;99.90;;;;;;4935495;29;20453;-71
2021/01/01 06:06:54;;;;;;;21.93;14.50;;;3.60;99.90;;;;;;4935393;29;20429;-71
2021/01/01 06:09:22;;;;;;;19.60;15.37;;;3.50;99.90;;;;;;4934472;29;20591;-71
2021/01/01 06:11:59;;;;;;;22.33;14.10;;;3.50;99.90;;;;;;4934573;29;20785;-71
2021/01/01 06:14:36;;;;;;;16.80;13.00;;;3.50;99.90;;;;;;4935185;29;21005;-71
2021/01/01 06:17:11;;;;;;;15.53;11.90;;;3.60;99.90;;;;;;4935628;29;20943;-71
2021/01/01 06:19:43;;;;;;;17.60;12.37;;;3.50;99.90;;;;;;4934628;29;20483;-71
2021/01/01 06:22:20;;;;;;;16.20;11.60;;;3.50;99.90;;;;;;4935690;29;20417;-71
2021/01/01 06:24:48;;;;;;;14.10;11.63;;;3.40;99.90;;;;;;4935766;29;20547;-71
2021/01/01 06:27:15;;;;;;;13.23;10.40;;;3.40;99.90;;;;;;4935773;29;20429;-71
2021/01/01 06:29:44;;;;;;;11.70;10.50;;;3.40;99.90;;;;;;4934822;29;20496;-71
2021/01/01 06:32:11;;;;;;;14.60;10.20;;;3.40;99.90;;;;;;4935930;29;20787;-71
2021/01/01 06:34:37;;;;;;;11.80;9.73;;;3.40;99.90;;;;;;4935785;29;20493;-70
2021/01/01 06:37:02;;;;;;;13.00;9.70;;;3.40;99.90;;;;;;4934306;28;20425;-69
2021/01/01 06:39:42;;;;;;;13.73;10.50;;;3.50;99.90;;;;;;4934599;29;20185;-71
2021/01/01 06:42:10;;;;;;;9.83;8.83;;;3.50;99.90;;;;;;4935442;29;20245;-71
2021/01/01 06:44:42;;;;;;;11.00;9.30;;;3.40;99.90;;;;;;4935343;29;20422;-71
2021/01/01 06:47:40;;;;;;;9.70;8.60;;;3.30;99.90;;;;;;4936037;29;20501;-71
2021/01/01 06:50:32;;;;;;;11.77;8.80;;;3.30;99.90;;;;;;4936327;29;20449;-71
2021/01/01 06:53:24;;;;;;;10.33;8.10;;;3.40;99.90;;;;;;4936789;29;20425;-72
2021/01/01 06:55:49;;;;;;;12.70;9.73;;;3.30;99.90;;;;;;4936351;29;20910;-71
2021/01/01 06:58:24;;;;;;;10.03;8.90;;;3.40;99.90;;;;;;4935817;29;20524;-71
2021/01/01 07:00:49;;;;;;;12.13;8.87;;;3.30;99.90;;;;;;4936005;29;20256;-70
2021/01/01 07:03:34;;;;;;;14.50;10.37;;;3.40;99.90;;;;;;4937285;29;20457;-70
2021/01/01 07:06:02;;;;;;;8.13;7.27;;;3.40;99.90;;;;;;4936842;29;20221;-71
2021/01/01 07:08:40;;;;;;;12.63;9.77;;;3.40;99.90;;;;;;4936763;29;20418;-71
2021/01/01 07:11:29;;;;;;;9.87;8.83;;;3.40;99.90;;;;;;4936453;29;20413;-70
2021/01/01 07:13:56;;;;;;;10.30;8.00;;;3.50;99.90;;;;;;4936618;29;20473;-71
2021/01/01 07:16:30;;;;;;;7.37;6.57;;;3.50;99.90;;;;;;4936158;29;20520;-70
2021/01/01 07:18:55;;;;;;;11.10;7.27;;;3.50;99.90;;;;;;4935476;29;20822;-71
2021/01/01 07:21:21;;;;;;;9.60;6.93;;;3.50;99.90;;;;;;4936220;29;20430;-71
2021/01/01 07:23:47;;;;;;;10.10;8.33;;;3.50;99.90;;;;;;4935719;29;20188;-70
2021/01/01 07:26:14;;;;;;;8.60;7.70;;;3.50;99.90;;;;;;4935936;29;20194;-70
2021/01/01 07:28:41;;;;;;;8.50;7.67;;;3.50;99.90;;;;;;4935790;29;20461;-70
2021/01/01 07:31:06;;;;;;;9.40;7.97;;;3.40;99.90;;;;;;4935843;29;20421;-69
2021/01/01 07:33:33;;;;;;;10.00;7.03;;;3.40;99.90;;;;;;4935553;29;20461;-68
2021/01/01 07:36:00;;;;;;;7.20;6.50;;;3.40;99.90;;;;;;4936401;29;20261;-71
2021/01/01 07:38:28;;;;;;;9.30;7.43;;;3.40;99.90;;;;;;4935012;28;20517;-71
2021/01/01 07:40:54;;;;;;;9.13;7.23;;;3.40;99.90;;;;;;4935258;29;20442;-71
2021/01/01 07:43:20;;;;;;;8.80;7.60;;;3.40;99.90;;;;;;4934695;29;20421;-71
2021/01/01 07:45:46;;;;;;;13.60;9.33;;;3.40;99.90;;;;;;4935532;29;20832;-70
2021/01/01 07:48:11;;;;;;;9.30;8.10;;;3.40;99.90;;;;;;4935382;29;20441;-70
2021/01/01 07:50:38;;;;;;;11.23;8.17;;;3.40;99.90;;;;;;4935723;29;20232;-70
2021/01/01 07:53:05;;;;;;;8.87;6.43;;;3.40;99.90;;;;;;4935155;29;20185;-70
2021/01/01 07:55:32;;;;;;;7.10;6.37;;;3.40;99.90;;;;;;4935209;29;21159;-70
2021/01/01 07:58:04;;;;;;;8.80;7.33;;;3.50;99.90;;;;;;4933936;29;20466;-70
2021/01/01 08:00:30;;;;;;;7.47;6.23;;;3.40;99.90;;;;;;4934531;29;20524;-70
2021/01/01 08:02:56;;;;;;;8.23;7.40;;;3.50;99.90;;;;;;4934391;29;20426;-71
2021/01/01 08:05:22;;;;;;;12.97;10.67;;;3.40;99.90;;;;;;4933241;29;20428;-70
2021/01/01 08:07:48;;;;;;;11.20;7.97;;;3.40;99.90;;;;;;4933432;29;20434;-70
2021/01/01 08:10:14;;;;;;;9.13;7.20;;;3.50;99.90;;;;;;4933923;29;20512;-72
2021/01/01 08:12:48;;;;;;;10.87;6.07;;;3.50;99.90;;;;;;4934412;29;20477;-71
2021/01/01 08:15:29;;;;;;;7.10;6.40;;;3.40;99.90;;;;;;4934153;29;20700;-70
2021/01/01 08:17:54;;;;;;;7.03;6.40;;;3.40;99.90;;;;;;4933279;29;20885;-70
2021/01/01 08:20:20;;;;;;;6.33;5.53;;;3.50;99.90;;;;;;4933931;29;20512;-70
2021/01/01 08:22:48;;;;;;;7.00;5.87;;;3.50;99.90;;;;;;4934178;29;20178;-69
2021/01/01 08:25:17;;;;;;;6.60;5.67;;;3.40;99.90;;;;;;4934268;29;20547;-71
2021/01/01 08:27:45;;;;;;;6.50;5.37;;;3.40;99.90;;;;;;4933530;29;20422;-71
2021/01/01 08:30:11;;;;;;;7.40;4.97;;;3.50;99.90;;;;;;4933840;29;20435;-71
2021/01/01 08:32:37;;;;;;;6.27;5.63;;;3.70;99.90;;;;;;4934551;29;20797;-70
2021/01/01 08:35:03;;;;;;;5.53;4.53;;;3.70;99.90;;;;;;4936740;29;20899;-71
2021/01/01 08:37:29;;;;;;;8.93;6.20;;;3.70;99.90;;;;;;4937536;29;20758;-71
2021/01/01 08:40:02;;;;;;;6.17;5.60;;;3.70;99.90;;;;;;4936854;29;20451;-70
2021/01/01 08:42:34;;;;;;;5.97;5.37;;;3.80;99.90;;;;;;4937607;28;20178;-71
2021/01/01 08:45:06;;;;;;;7.03;5.80;;;3.80;99.90;;;;;;4938192;29;20440;-71
2021/01/01 08:47:48;;;;;;;6.57;5.87;;;3.90;99.90;;;;;;4937500;29;20437;-71
2021/01/01 08:50:24;;;;;;;6.50;5.40;;;3.90;99.90;;;;;;4937800;29;20429;-71
2021/01/01 08:53:01;;;;;;;6.70;4.90;;;3.90;99.90;;;;;;4938051;29;20484;-71
2021/01/01 08:55:28;;;;;;;5.93;5.13;;;4.00;99.90;;;;;;4936822;29;20456;-70
2021/01/01 08:58:06;;;;;;;6.70;5.50;;;4.00;99.90;;;;;;4936190;29;20846;-71
2021/01/01 09:00:31;;;;;;;5.43;4.63;;;4.00;99.90;;;;;;4937694;29;20428;-70
2021/01/01 09:02:58;;;;;;;7.17;4.63;;;4.00;99.90;;;;;;4937825;29;20421;-69
2021/01/01 09:05:27;;;;;;;5.43;4.20;;;4.00;99.90;;;;;;4937240;29;20181;-71
2021/01/01 09:08:27;;;;;;;6.33;5.70;;;4.10;99.90;;;;;;4936416;29;20803;-70
2021/01/01 09:10:53;;;;;;;4.10;3.73;;;4.20;99.90;;;;;;4937162;29;20449;-70
2021/01/01 09:13:28;;;;;;;4.43;4.03;;;4.30;99.90;;;;;;4937114;29;20413;-70
2021/01/01 09:16:04;;;;;;;6.27;4.37;;;4.30;99.90;;;;;;4937083;29;20417;-71
2021/01/01 09:18:30;;;;;;;4.47;3.97;;;4.40;99.90;;;;;;4935994;29;20531;-70
2021/01/01 09:21:13;;;;;;;5.17;3.67;;;4.40;99.90;;;;;;4937721;29;20749;-71
2021/01/01 09:23:39;;;;;;;6.23;4.57;;;4.50;99.90;;;;;;4936844;29;20429;-71
2021/01/01 09:26:05;;;;;;;7.33;5.07;;;4.60;99.90;;;;;;4936626;29;20435;-69
2021/01/01 09:28:32;;;;;;;5.00;4.50;;;4.80;99.90;;;;;;4935743;29;20473;-71
2021/01/01 09:30:57;;;;;;;4.70;3.40;;;4.90;99.90;;;;;;4936730;29;20482;-71
2021/01/01 09:33:23;;;;;;;4.93;4.03;;;5.00;99.90;;;;;;4936580;29;20429;-71
2021/01/01 09:35:48;;;;;;;4.27;3.50;;;5.00;99.90;;;;;;4936648;29;20567;-70
2021/01/01 09:38:14;;;;;;;4.80;4.30;;;5.10;99.90;;;;;;4935784;29;20202;-69
2021/01/01 09:40:39;;;;;;;6.13;4.77;;;5.00;99.90;;;;;;4936671;29;20174;-71
2021/01/01 09:43:06;;;;;;;5.30;4.10;;;5.10;99.90;;;;;;4936124;29;20257;-71
2021/01/01 09:45:36;;;;;;;4.40;3.80;;;4.90;99.90;;;;;;4935436;29;20181;-71
2021/01/01 09:48:03;;;;;;;5.20;4.70;;;5.00;99.90;;;;;;4935342;29;20436;-71
2021/01/01 09:50:28;;;;;;;6.00;5.40;;;4.90;99.90;;;;;;4935932;29;20516;-71
2021/01/01 09:52:54;;;;;;;4.17;3.83;;;5.00;99.90;;;;;;4935958;29;20461;-72
2021/01/01 09:55:20;;;;;;;5.57;3.67;;;5.10;99.90;;;;;;4935760;29;20761;-70
2021/01/01 09:57:46;;;;;;;3.37;3.07;;;5.10;99.90;;;;;;4934686;29;20652;-70
2021/01/01 10:00:14;;;;;;;2.73;2.50;;;5.20;99.90;;;;;;4934280;29;20421;-71
2021/01/01 10:02:41;;;;;;;3.80;3.13;;;5.30;99.90;;;;;;4935219;29;20924;-71
2021/01/01 10:05:08;;;;;;;3.23;2.93;;;5.40;99.90;;;;;;4935056;29;20422;-71
2021/01/01 10:07:34;;;;;;;4.57;2.90;;;5.50;99.90;;;;;;4934911;29;20449;-71
2021/01/01 10:09:59;;;;;;;4.70;3.67;;;5.60;99.90;;;;;;4934108;29;20461;-71
2021/01/01 10:12:25;;;;;;;4.30;3.90;;;5.60;99.90;;;;;;4934850;29;20425;-71
2021/01/01 10:14:54;;;;;;;4.97;3.07;;;5.70;99.90;;;;;;4933633;29;20217;-71
2021/01/01 10:17:23;;;;;;;2.93;2.70;;;5.70;99.90;;;;;;4934667;29;20166;-71
2021/01/01 10:19:48;;;;;;;5.37;4.30;;;5.60;99.90;;;;;;4934070;29;20441;-68
2021/01/01 10:22:14;;;;;;;4.27;3.40;;;5.70;99.90;;;;;;4934948;29;20413;-72
2021/01/01 10:24:39;;;;;;;2.97;2.77;;;5.60;99.90;;;;;;4934932;29;20174;-72
2021/01/01 10:27:05;;;;;;;3.33;2.97;;;5.60;99.90;;;;;;4934916;29;20177;-71
2021/01/01 10:29:30;;;;;;;3.93;3.20;;;5.50;99.90;;;;;;4933746;29;20256;-69
2021/01/01 10:32:02;;;;;;;3.50;2.90;;;5.60;99.90;;;;;;4934658;29;20585;-72
2021/01/01 10:34:27;;;;;;;4.53;3.27;;;5.60;99.90;;;;;;4934437;29;20200;-71
2021/01/01 10:36:53;;;;;;;3.73;3.30;;;5.60;99.90;;;;;;4934691;29;20484;-71
2021/01/01 10:39:19;;;;;;;4.23;3.70;;;5.60;99.90;;;;;;4933438;29;20189;-70
2021/01/01 10:41:48;;;;;;;3.57;3.27;;;5.60;99.90;;;;;;4934324;29;20181;-71
2021/01/01 10:44:13;;;;;;;4.07;3.50;;;5.70;99.90;;;;;;4934424;28;20537;-71
2021/01/01 10:46:40;;;;;;;4.83;3.93;;;5.60;99.90;;;;;;4934509;29;20433;-70
2021/01/01 10:49:06;;;;;;;3.33;3.00;;;5.50;99.90;;;;;;4933511;29;20221;-70
2021/01/01 10:51:31;;;;;;;4.30;3.60;;;5.50;99.90;;;;;;4933972;29;20512;-71
2021/01/01 10:53:57;;;;;;;3.73;3.30;;;5.50;99.90;;;;;;4933821;29;20193;-70
2021/01/01 10:56:24;;;;;;;4.90;4.37;;;5.40;99.90;;;;;;4933720;29;20516;-71
2021/01/01 10:58:50;;;;;;;4.67;4.27;;;5.40;99.90;;;;;;4933131;29;20284;-71
2021/01/01 11:01:23;;;;;;;3.80;3.50;;;5.40;99.90;;;;;;4932718;29;20422;-70
2021/01/01 11:03:49;;;;;;;3.83;3.53;;;5.40;99.90;;;;;;4933779;29;20425;-71
2021/01/01 11:06:15;;;;;;;4.77;3.63;;;5.30;99.90;;;;;;4933819;29;20436;-71
2021/01/01 11:08:42;;;;;;;3.27;2.90;;;5.40;99.90;;;;;;4933030;29;20312;-71
2021/01/01 11:11:13;;;;;;;4.00;3.17;;;5.40;99.90;;;;;;4933638;29;20558;-70
2021/01/01 11:13:47;;;;;;;4.13;3.73;;;5.20;99.90;;;;;;4933605;29;20465;-71
2021/01/01 12:20:43;;;;;;;6.73;3.60;;;5.70;99.90;;;;;;4935740;29;20917;-70
2021/01/01 12:23:09;;;;;;;4.63;4.10;;;5.80;99.90;;;;;;4936911;29;20465;-70
2021/01/01 12:25:35;;;;;;;4.77;3.40;;;5.80;99.90;;;;;;4936730;29;20931;-71
2021/01/01 12:28:03;;;;;;;5.00;4.50;;;5.80;99.90;;;;;;4935787;29;20453;-71
2021/01/01 12:30:31;;;;;;;4.83;4.43;;;5.60;99.90;;;;;;4936641;29;20421;-71
2021/01/01 12:32:57;;;;;;;4.50;4.20;;;5.50;99.90;;;;;;4936756;29;20452;-70
2021/01/01 12:35:22;;;;;;;5.90;5.30;;;5.60;99.90;;;;;;4936536;29;20457;-71
2021/01/01 12:38:01;;;;;;;6.43;5.47;;;5.60;99.90;;;;;;4935565;29;20765;-70
2021/01/01 12:40:28;;;;;;;5.27;4.57;;;5.30;99.90;;;;;;4936428;29;20204;-70
2021/01/01 12:42:54;;;;;;;6.33;5.00;;;5.30;99.90;;;;;;4936220;29;20481;-70
2021/01/01 12:45:20;;;;;;;6.10;5.50;;;5.20;99.90;;;;;;4936238;29;20716;-71
2021/01/01 12:47:46;;;;;;;5.33;4.80;;;5.20;99.90;;;;;;4935248;29;20448;-71
2021/01/01 12:50:12;;;;;;;4.97;4.47;;;5.20;99.90;;;;;;4936142;29;20425;-71
2021/01/01 12:52:37;;;;;;;4.53;4.10;;;5.30;99.90;;;;;;4936161;29;20205;-71
2021/01/01 12:55:03;;;;;;;6.87;4.57;;;5.20;99.90;;;;;;4935932;29;20209;-70
2021/01/01 12:57:29;;;;;;;5.50;4.10;;;5.10;99.90;;;;;;4935784;29;20196;-70
2021/01/01 12:59:54;;;;;;;5.97;5.20;;;5.10;99.90;;;;;;4933908;29;20194;-70
2021/01/01 13:02:20;;;;;;;5.30;4.80;;;5.20;99.90;;;;;;4935823;29;20174;-70
2021/01/01 13:04:45;;;;;;;4.23;3.83;;;5.20;99.90;;;;;;4936003;29;20543;-71
2021/01/01 13:07:11;;;;;;;5.13;4.27;;;5.40;99.90;;;;;;4935778;29;20547;-69
2021/01/01 13:09:36;;;;;;;8.27;6.37;;;5.40;99.90;;;;;;4934880;29;20198;-70
2021/01/01 13:12:02;;;;;;;8.67;6.90;;;5.50;99.90;;;;;;4934407;29;20178;-71
2021/01/01 13:14:27;;;;;;;6.93;5.40;;;5.50;99.90;;;;;;4935558;29;20219;-71
2021/01/01 13:16:55;;;;;;;9.23;7.40;;;5.70;99.90;;;;;;4935541;29;20627;-70
2021/01/01 13:19:21;;;;;;;8.30;4.90;;;5.60;99.90;;;;;;4934701;29;20205;-69
2021/01/01 13:21:46;;;;;;;6.37;5.40;;;5.50;99.90;;;;;;4935342;29;20429;-71
2021/01/01 13:24:12;;;;;;;5.87;4.90;;;5.50;99.90;;;;;;4935519;29;20184;-70
2021/01/01 13:26:37;;;;;;;6.10;4.80;;;5.70;99.90;;;;;;4935656;29;20558;-71
2021/01/01 13:29:04;;;;;;;5.83;4.40;;;5.60;99.90;;;;;;4934513;29;20604;-70
2021/01/01 13:31:40;;;;;;;6.07;4.70;;;5.70;99.90;;;;;;4935398;29;20209;-71
2021/01/01 13:34:07;;;;;;;6.87;5.40;;;5.90;99.90;;;;;;4935302;29;20468;-71
2021/01/01 13:36:33;;;;;;;7.60;5.50;;;5.90;99.90;;;;;;4935207;28;20504;-71
2021/01/01 13:38:59;;;;;;;5.90;5.00;;;6.00;99.90;;;;;;4934523;29;20445;-70
2021/01/01 13:41:25;;;;;;;5.90;4.63;;;5.90;99.90;;;;;;4935000;29;20437;-70
2021/01/01 13:43:53;;;;;;;4.93;4.43;;;5.80;99.90;;;;;;4935201;28;20780;-70
2021/01/01 13:46:23;;;;;;;4.87;4.33;;;5.90;99.90;;;;;;4935155;29;20201;-70
2021/01/01 13:48:50;;;;;;;4.63;3.53;;;5.90;99.90;;;;;;4934334;29;21159;-70
2021/01/01 13:51:16;;;;;;;5.13;4.20;;;6.20;99.90;;;;;;4934989;29;20789;-70